createdAt,value
2018-04-26T00:01:37.531Z,101789.66
2018-04-26T00:04:10.233Z,101791.86
2018-04-26T00:06:37.802Z,101800.05
2018-04-26T00:09:05.307Z,101791.88
2018-04-26T00:11:32.890Z,101796.67
2018-04-26T00:14:00.465Z,101798.91
2018-04-26T00:16:28.645Z,101808.88
2018-04-26T00:18:58.232Z,101798.05
2018-04-26T00:21:30.500Z,101816.77
2018-04-26T00:23:58.077Z,101809.34
2018-04-26T00:26:25.634Z,101816.75
2018-04-26T00:28:53.160Z,101805.51
2018-04-26T00:31:20.767Z,101808.53
2018-04-26T00:33:49.703Z,101806.37
2018-04-26T00:36:19.340Z,101817.73
2018-04-26T00:38:51.239Z,101814.70
2018-04-26T00:41:18.743Z,101812.10
2018-04-26T00:43:46.336Z,101809.55
2018-04-26T00:46:13.868Z,101815.63
2018-04-26T00:48:41.455Z,101819.98
2018-04-26T00:51:11.380Z,101821.77
2018-04-26T00:53:38.953Z,101815.70
2018-04-26T00:56:07.015Z,101822.14
2018-04-26T00:58:34.547Z,101826.92
2018-04-26T01:01:02.104Z,101821.62
2018-04-26T01:03:29.691Z,101819.38
2018-04-26T01:05:57.258Z,101828.91
2018-04-26T01:08:29.683Z,101816.28
2018-04-26T01:10:58.388Z,101821.91
2018-04-26T01:13:27.171Z,101822.78
2018-04-26T01:15:54.691Z,101826.73
2018-04-26T01:18:22.192Z,101832.39
2018-04-26T01:20:49.731Z,101821.20
2018-04-26T01:23:17.259Z,101822.98
2018-04-26T01:25:47.240Z,101833.48
2018-04-26T01:28:17.439Z,101836.54
2018-04-26T01:30:47.389Z,101825.70
2018-04-26T01:33:14.932Z,101821.86
2018-04-26T01:35:42.460Z,101828.81
2018-04-26T01:38:11.412Z,101831.03
2018-04-26T01:40:38.955Z,101826.70
2018-04-26T01:43:07.681Z,101828.44
2018-04-26T01:45:37.956Z,101825.85
2018-04-26T01:48:10.546Z,101829.84
2018-04-26T01:50:38.983Z,101822.45
2018-04-26T01:53:06.536Z,101828.58
2018-04-26T01:55:34.179Z,101827.73
2018-04-26T01:58:01.711Z,101825.13
2018-04-26T02:00:30.832Z,101834.67
2018-04-26T02:02:58.928Z,101829.02
2018-04-26T02:05:27.532Z,101828.61
2018-04-26T02:07:55.079Z,101824.72
2018-04-26T02:10:22.614Z,101820.43
2018-04-26T02:12:50.136Z,101817.85
2018-04-26T02:15:17.688Z,101823.93
2018-04-26T02:17:45.752Z,101819.70
2018-04-26T02:20:14.616Z,101822.31
2018-04-26T02:22:43.090Z,101829.26
2018-04-26T02:25:10.619Z,101827.09
2018-04-26T02:27:38.168Z,101822.73
2018-04-26T02:30:05.700Z,101828.34
2018-04-26T02:32:33.343Z,101850.93
2018-04-26T02:35:01.996Z,101830.50
2018-04-26T02:37:35.943Z,101821.83
2018-04-26T02:40:06.343Z,101830.55
2018-04-26T02:42:33.903Z,101819.74
2018-04-26T02:45:01.456Z,101825.49
2018-04-26T02:47:28.971Z,101823.28
2018-04-26T02:49:56.605Z,101817.64
2018-04-26T02:52:25.849Z,101826.36
2018-04-26T02:54:57.686Z,101826.67
2018-04-26T02:57:26.200Z,101814.45
2018-04-26T02:59:53.788Z,101817.04
2018-04-26T03:02:21.292Z,101827.75
2018-04-26T03:04:48.870Z,101820.30
2018-04-26T03:07:16.452Z,101821.58
2018-04-26T03:09:44.241Z,101826.71
2018-04-26T03:12:13.277Z,101817.97
2018-04-26T03:14:43.312Z,101818.46
2018-04-26T03:17:10.843Z,101816.72
2018-04-26T03:19:38.394Z,101828.38
2018-04-26T03:22:06.003Z,101833.73
2018-04-26T03:24:33.567Z,101831.12
2018-04-26T03:30:15.125Z,101828.07
2018-04-26T03:32:46.321Z,101828.45
2018-04-26T03:35:13.871Z,101818.91
2018-04-26T03:37:41.386Z,101824.55
2018-04-26T03:40:08.947Z,101818.96
2018-04-26T03:42:36.479Z,101821.22
2018-04-26T03:45:04.180Z,101821.09
2018-04-26T03:47:33.274Z,101828.02
2018-04-26T03:50:03.157Z,101823.22
2018-04-26T03:52:30.699Z,101820.63
2018-04-26T03:54:58.296Z,101814.94
2018-04-26T03:57:25.867Z,101817.17
2018-04-26T04:00:06.029Z,101824.99
2018-04-26T04:02:47.046Z,101822.89
2018-04-26T04:08:28.604Z,101815.08
2018-04-26T04:11:05.947Z,101807.36
2018-04-26T04:13:33.502Z,101809.08
2018-04-26T04:16:01.106Z,101809.97
2018-04-26T04:18:30.052Z,101803.90
2018-04-26T04:20:58.257Z,101811.82
2018-04-26T04:23:27.332Z,101809.67
2018-04-26T04:25:54.845Z,101802.32
2018-04-26T04:28:22.400Z,101796.30
2018-04-26T04:30:49.911Z,101801.09
2018-04-26T04:33:17.565Z,101804.56
2018-04-26T04:35:45.305Z,101808.98
2018-04-26T04:38:13.942Z,101812.92
2018-04-26T04:40:42.316Z,101809.03
2018-04-26T04:43:12.738Z,101818.12
2018-04-26T04:45:40.283Z,101817.63
2018-04-26T04:48:07.883Z,101819.34
2018-04-26T04:50:35.425Z,101816.27
2018-04-26T04:53:03.012Z,101811.92
2018-04-26T04:55:31.404Z,101813.22
2018-04-26T04:58:05.728Z,101809.26
2018-04-26T05:00:34.361Z,101815.31
2018-04-26T05:03:01.923Z,101817.47
2018-04-26T05:05:29.472Z,101806.62
2018-04-26T05:07:57.019Z,101819.16
2018-04-26T05:10:28.210Z,101809.17
2018-04-26T05:12:58.431Z,101810.48
2018-04-26T05:15:26.915Z,101821.31
2018-04-26T05:17:55.608Z,101815.25
2018-04-26T05:20:23.123Z,101818.28
2018-04-26T05:22:50.716Z,101816.11
2018-04-26T05:25:18.387Z,101820.02
2018-04-26T05:27:46.111Z,101829.11
2018-04-26T05:30:17.769Z,101823.03
2018-04-26T05:32:45.763Z,101830.84
2018-04-26T05:35:14.053Z,101832.15
2018-04-26T05:37:41.598Z,101828.23
2018-04-26T05:40:09.155Z,101828.25
2018-04-26T05:42:36.711Z,101826.49
2018-04-26T05:45:05.276Z,101830.70
2018-04-26T05:47:35.436Z,101834.52
2018-04-26T05:50:03.634Z,101842.23
2018-04-26T05:52:31.171Z,101842.53
2018-04-26T05:54:58.783Z,101845.94
2018-04-26T05:57:26.310Z,101842.01
2018-04-26T05:59:53.943Z,101832.48
2018-04-26T06:02:25.943Z,101846.01
2018-04-26T06:04:53.972Z,101842.23
2018-04-26T06:07:25.961Z,101846.15
2018-04-26T06:09:53.501Z,101854.90
2018-04-26T06:12:21.074Z,101861.43
2018-04-26T06:14:48.643Z,101855.80
2018-04-26T06:17:16.343Z,101868.80
2018-04-26T06:19:44.064Z,101868.30
2018-04-26T06:22:14.189Z,101873.31
2018-04-26T06:24:42.667Z,101867.88
2018-04-26T06:27:10.219Z,101865.94
2018-04-26T06:29:37.791Z,101868.00
2018-04-26T06:32:05.350Z,101879.23
2018-04-26T06:34:32.943Z,101871.91
2018-04-26T06:42:15.409Z,101886.89
2018-04-26T06:44:42.939Z,101884.19
2018-04-26T06:47:10.515Z,101878.61
2018-04-26T06:49:38.187Z,101888.16
2018-04-26T06:52:05.760Z,101915.53
2018-04-26T06:54:34.679Z,101896.06
2018-04-26T06:57:04.492Z,101900.34
2018-04-26T07:02:08.797Z,101899.67
2018-04-26T07:04:36.375Z,101906.08
2018-04-26T07:07:04.059Z,101912.95
2018-04-26T07:09:32.360Z,101912.84
2018-04-26T07:12:02.571Z,101909.78
2018-04-26T07:14:31.071Z,101911.44
2018-04-26T07:16:59.561Z,101905.28
2018-04-26T07:19:27.115Z,101909.10
2018-04-26T07:21:54.864Z,101907.30
2018-04-26T07:24:22.375Z,101913.27
2018-04-26T07:26:50.027Z,101907.97
2018-04-26T07:29:22.607Z,101913.05
2018-04-26T07:37:01.604Z,101904.35
2018-04-26T07:39:29.154Z,101914.33
2018-04-26T07:41:56.799Z,101908.34
2018-04-26T07:50:02.133Z,101934.09
2018-04-26T07:52:34.658Z,101916.62
2018-04-26T07:55:02.307Z,101933.34
2018-04-26T07:57:29.929Z,101926.17
2018-04-26T07:59:57.525Z,101928.96
2018-04-26T08:02:27.744Z,101928.30
2018-04-26T08:10:29.549Z,101934.63
2018-04-26T08:12:57.173Z,101924.20
2018-04-26T08:15:24.712Z,101916.38
2018-04-26T08:17:53.275Z,101913.69
2018-04-26T08:20:26.027Z,101901.81
2018-04-26T08:28:15.090Z,101895.84
2018-04-26T08:30:43.602Z,101898.35
2018-04-26T08:33:11.182Z,101891.75
2018-04-26T08:35:42.053Z,101899.97
2018-04-26T08:46:34.033Z,101908.47
2018-04-26T08:49:01.686Z,101900.55
2018-04-26T08:51:29.255Z,101911.87
2018-04-26T09:04:29.491Z,101932.76
2018-04-26T09:06:57.143Z,101928.36
2018-04-26T09:09:24.723Z,101938.24
2018-04-26T09:19:41.074Z,101936.66
2018-04-26T09:22:08.623Z,101945.67
2018-04-26T09:24:36.219Z,101934.25
2018-04-26T09:27:03.763Z,101960.73
2018-04-26T09:29:34.602Z,101943.73
2018-04-26T09:34:35.032Z,101932.52
2018-04-26T09:37:02.639Z,101935.98
2018-04-26T09:39:30.289Z,101938.95
2018-04-26T09:41:57.813Z,101930.03
2018-04-26T09:44:25.501Z,101934.18
2018-04-26T09:46:55.549Z,101933.16
2018-04-26T09:49:23.836Z,101934.34
2018-04-26T09:51:54.755Z,101942.54
2018-04-26T09:54:22.379Z,101934.14
2018-04-26T09:56:50.011Z,101929.59
2018-04-26T09:59:18.227Z,101935.91
2018-04-26T10:01:45.872Z,101941.02
2018-04-26T10:04:15.610Z,101938.34
2018-04-26T10:06:50.531Z,101928.09
2018-04-26T10:09:19.160Z,101926.98
2018-04-26T10:11:46.779Z,101938.27
2018-04-26T10:14:14.352Z,101935.95
2018-04-26T10:16:41.948Z,101937.37
2018-04-26T10:19:09.541Z,101932.75
2018-04-26T10:21:39.862Z,101926.98
2018-04-26T10:26:49.853Z,101928.84
2018-04-26T10:29:17.971Z,101925.70
2018-04-26T10:31:45.524Z,101936.72
2018-04-26T10:34:13.147Z,101932.16
2018-04-26T10:36:41.715Z,101919.33
2018-04-26T10:39:10.087Z,101926.17
2018-04-26T10:41:43.447Z,101925.41
2018-04-26T10:44:11.785Z,101915.69
2018-04-26T10:46:39.367Z,101924.94
2018-04-26T10:49:07.850Z,101922.58
2018-04-26T10:51:35.441Z,101925.27
2018-04-26T10:54:03.072Z,101932.45
2018-04-26T10:56:34.766Z,101934.33
2018-04-26T10:59:06.543Z,101941.13
2018-04-26T11:04:19.537Z,101922.60
2018-04-26T11:06:47.208Z,101921.02
2018-04-26T11:09:14.836Z,101922.57
2018-04-26T11:11:43.623Z,101917.91
2018-04-26T11:14:11.227Z,101926.14
2018-04-26T11:16:42.095Z,101928.90
2018-04-26T11:19:10.757Z,101930.19
2018-04-26T11:21:39.092Z,101929.56
2018-04-26T11:24:06.626Z,101920.06
2018-04-26T11:26:35.073Z,101936.20
2018-04-26T11:29:07.258Z,101928.78
2018-04-26T11:31:37.994Z,101920.52
2018-04-26T11:34:07.359Z,101927.40
2018-04-26T11:36:35.463Z,101919.95
2018-04-26T11:39:03.124Z,101916.74
2018-04-26T11:41:30.752Z,101921.60
2018-04-26T11:43:58.344Z,101915.45
2018-04-26T11:46:27.628Z,101918.40
2018-04-26T11:48:58.541Z,101920.72
2018-04-26T11:54:13.744Z,101927.08
2018-04-26T11:56:44.875Z,101935.14
2018-04-26T11:59:12.462Z,101936.73
2018-04-26T12:01:40.035Z,101925.27
2018-04-26T12:06:45.938Z,101924.58
2018-04-26T12:09:14.852Z,101918.86
2018-04-26T12:11:42.528Z,101921.53
2018-04-26T12:14:10.086Z,101921.55
2018-04-26T12:16:37.646Z,101919.34
2018-04-26T12:19:05.210Z,101923.66
2018-04-26T12:24:11.571Z,101912.77
2018-04-26T12:26:43.495Z,101912.08
2018-04-26T12:29:11.078Z,101913.05
2018-04-26T12:31:38.705Z,101904.97
2018-04-26T12:34:06.255Z,101910.69
2018-04-26T12:36:33.881Z,101914.80
2018-04-26T12:39:03.936Z,101906.41
2018-04-26T12:41:33.885Z,101917.27
2018-04-26T12:44:05.744Z,101902.84
2018-04-26T12:46:33.335Z,101898.75
2018-04-26T12:49:00.918Z,101912.33
2018-04-26T12:51:28.591Z,101913.00
2018-04-26T12:53:56.152Z,101904.12
2018-04-26T12:56:30.199Z,101904.30
2018-04-26T12:59:02.767Z,101906.50
2018-04-26T13:01:34.637Z,101913.77
2018-04-26T13:04:02.172Z,101908.46
2018-04-26T13:06:29.717Z,101893.34
2018-04-26T13:08:57.237Z,101902.57
2018-04-26T13:11:24.852Z,101903.69
2018-04-26T13:13:53.592Z,101893.39
2018-04-26T13:16:23.669Z,101897.86
2018-04-26T13:18:51.368Z,101897.69
2018-04-26T13:21:18.922Z,101902.12
2018-04-26T13:23:46.507Z,101890.58
2018-04-26T13:26:14.113Z,101891.45
2018-04-26T13:28:41.876Z,101886.63
2018-04-26T13:31:13.847Z,101870.95
2018-04-26T13:33:42.014Z,101882.42
2018-04-26T13:36:11.112Z,101872.30
2018-04-26T13:38:38.740Z,101873.64
2018-04-26T13:41:06.408Z,101868.99
2018-04-26T13:43:33.950Z,101880.54
2018-04-26T13:46:01.548Z,101872.83
2018-04-26T13:48:30.434Z,101874.20
2018-04-26T13:50:59.431Z,101870.65
2018-04-26T13:53:27.318Z,101864.52
2018-04-26T13:55:54.849Z,101882.29
2018-04-26T13:58:22.514Z,101886.51
2018-04-26T14:00:50.117Z,101874.20
2018-04-26T14:03:17.667Z,101881.80
2018-04-26T14:05:46.464Z,101875.24
2018-04-26T14:08:15.739Z,101875.67
2018-04-26T14:10:43.447Z,101864.09
2018-04-26T14:13:11.067Z,101866.38
2018-04-26T14:15:38.601Z,101876.09
2018-04-26T14:18:06.139Z,101865.83
2018-04-26T14:20:33.810Z,101857.83
2018-04-26T14:23:03.867Z,101857.95
2018-04-26T14:25:31.652Z,101868.31
2018-04-26T14:27:59.311Z,101854.66
2018-04-26T14:30:26.815Z,101839.57
2018-04-26T14:32:54.383Z,101833.83
2018-04-26T14:35:21.955Z,101826.37
2018-04-26T14:37:49.611Z,101838.94
2018-04-26T14:40:19.868Z,101834.56
2018-04-26T14:42:50.393Z,101836.02
2018-04-26T14:45:26.405Z,101821.54
2018-04-26T14:47:54.095Z,101816.68
2018-04-26T14:50:21.651Z,101813.22
2018-04-26T14:52:49.226Z,101806.63
2018-04-26T14:55:16.917Z,101816.03
2018-04-26T14:57:50.008Z,101808.33
2018-04-26T15:00:19.722Z,101817.28
2018-04-26T15:02:50.055Z,101816.06
2018-04-26T15:05:17.620Z,101821.44
2018-04-26T15:07:45.240Z,101826.58
2018-04-26T15:10:13.823Z,101817.61
2018-04-26T15:15:18.101Z,101811.69
2018-04-26T15:17:46.492Z,101809.79
2018-04-26T15:20:17.841Z,101802.53
2018-04-26T15:22:45.363Z,101793.77
2018-04-26T15:25:12.919Z,101795.16
2018-04-26T15:27:40.439Z,101786.21
2018-04-26T15:30:08.041Z,101789.37
2018-04-26T15:32:35.900Z,101777.77
2018-04-26T15:35:03.468Z,101772.54
2018-04-26T15:37:32.378Z,101780.33
2018-04-26T15:40:00.627Z,101777.47
2018-04-26T15:42:28.182Z,101777.73
2018-04-26T15:44:55.750Z,101773.36
2018-04-26T15:47:23.380Z,101766.80
2018-04-26T15:49:51.921Z,101772.05
2018-04-26T15:52:31.181Z,101776.39
2018-04-26T15:58:32.222Z,101775.80
2018-04-26T16:01:12.039Z,101771.25
2018-04-26T16:03:51.469Z,101775.52
2018-04-26T16:06:42.540Z,101784.36
2018-04-26T16:09:22.840Z,101778.75
2018-04-26T16:12:06.182Z,101777.20
2018-04-26T16:14:45.491Z,101772.39
2018-04-26T16:17:30.574Z,101786.94
2018-04-26T16:20:15.614Z,101767.25
2018-04-26T16:23:06.012Z,101772.39
2018-04-26T16:25:49.874Z,101767.06
2018-04-26T16:28:34.920Z,101763.72
2018-04-26T16:31:20.147Z,101775.63
2018-04-26T16:34:05.147Z,101767.38
2018-04-26T16:36:44.589Z,101771.84
2018-04-26T16:39:27.204Z,101769.34
2018-04-26T16:41:55.793Z,101771.41
2018-04-26T16:44:23.527Z,101770.09
2018-04-26T16:46:52.068Z,101764.53
2018-04-26T16:49:20.513Z,101757.28
2018-04-26T16:51:48.038Z,101754.94
2018-04-26T16:54:15.631Z,101755.70
2018-04-26T16:56:43.649Z,101753.59
2018-04-26T16:59:11.424Z,101742.14
2018-04-26T17:01:39.026Z,101747.75
2018-04-26T17:04:06.691Z,101744.30
2018-04-26T17:06:34.331Z,101745.63
2018-04-26T17:09:01.826Z,101742.98
2018-04-26T17:11:29.387Z,101744.70
2018-04-26T17:14:01.112Z,101739.17
2018-04-26T17:16:30.854Z,101746.16
2018-04-26T17:18:59.741Z,101745.30
2018-04-26T17:21:27.307Z,101747.49
2018-04-26T17:23:54.870Z,101750.24
2018-04-26T17:26:22.416Z,101745.23
2018-04-26T17:28:49.998Z,101739.53
2018-04-26T17:31:17.953Z,101738.55
2018-04-26T17:33:45.683Z,101735.95
2018-04-26T17:36:13.768Z,101733.36
2018-04-26T17:38:41.308Z,101730.87
2018-04-26T17:41:08.889Z,101732.69
2018-04-26T17:43:36.425Z,101726.22
2018-04-26T17:46:03.991Z,101722.91
2018-04-26T17:48:31.631Z,101713.59
2018-04-26T17:50:59.179Z,101712.53
2018-04-26T17:53:26.791Z,101709.16
2018-04-26T17:55:54.356Z,101701.67
2018-04-26T17:58:21.969Z,101696.34
2018-04-26T18:00:49.470Z,101698.53
2018-04-26T18:03:17.033Z,101695.81
2018-04-26T18:05:44.702Z,101692.77
2018-04-26T18:08:12.528Z,101696.05
2018-04-26T18:10:41.739Z,101690.59
2018-04-26T18:13:10.529Z,101683.53
2018-04-26T18:15:38.112Z,101687.47
2018-04-26T18:18:05.627Z,101688.78
2018-04-26T18:20:33.196Z,101676.28
2018-04-26T18:23:01.655Z,101676.80
2018-04-26T18:25:31.771Z,101677.59
2018-04-26T18:28:03.749Z,101673.92
2018-04-26T18:30:33.846Z,101667.48
2018-04-26T18:33:01.476Z,101672.48
2018-04-26T18:35:29.123Z,101672.31
2018-04-26T18:37:56.735Z,101673.81
2018-04-26T18:40:25.996Z,101666.00
2018-04-26T18:42:54.159Z,101663.41
2018-04-26T18:45:22.685Z,101664.79
2018-04-26T18:47:51.895Z,101663.61
2018-04-26T18:50:19.431Z,101661.55
2018-04-26T18:52:46.966Z,101656.50
2018-04-26T18:55:14.526Z,101662.62
2018-04-26T18:57:43.521Z,101663.50
2018-04-26T19:00:13.777Z,101663.05
2018-04-26T19:02:41.523Z,101661.41
2018-04-26T19:05:09.044Z,101665.35
2018-04-26T19:07:36.614Z,101669.39
2018-04-26T19:10:04.136Z,101669.59
2018-04-26T19:12:31.730Z,101667.55
2018-04-26T19:14:59.382Z,101656.77
2018-04-26T19:17:27.081Z,101655.20
2018-04-26T19:19:55.538Z,101656.20
2018-04-26T19:22:23.123Z,101655.91
2018-04-26T19:24:50.680Z,101654.69
2018-04-26T19:27:18.203Z,101650.49
2018-04-26T19:29:45.833Z,101649.73
2018-04-26T19:32:13.630Z,101646.31
2018-04-26T19:34:41.956Z,101640.81
2018-04-26T19:37:09.669Z,101642.56
2018-04-26T19:39:37.257Z,101638.23
2018-04-26T19:42:04.771Z,101634.30
2018-04-26T19:44:32.338Z,101627.78
2018-04-26T19:46:59.912Z,101622.55
2018-04-26T19:49:27.503Z,101631.31
2018-04-26T19:51:55.229Z,101627.56
2018-04-26T19:54:23.868Z,101624.66
2018-04-26T19:56:51.416Z,101625.69
2018-04-26T19:59:18.950Z,101627.11
2018-04-26T20:01:46.495Z,101622.45
2018-04-26T20:04:14.100Z,101619.94
2018-04-26T20:06:41.960Z,101620.03
2018-04-26T20:09:10.545Z,101615.73
2018-04-26T20:11:38.519Z,101611.89
2018-04-26T20:14:06.075Z,101611.02
2018-04-26T20:16:34.714Z,101607.52
2018-04-26T20:19:02.255Z,101603.98
2018-04-26T20:21:29.810Z,101605.27
2018-04-26T20:23:57.761Z,101595.70
2018-04-26T20:26:26.289Z,101603.52
2018-04-26T20:28:54.007Z,101593.08
2018-04-26T20:31:21.599Z,101591.75
2018-04-26T20:33:49.171Z,101582.64
2018-04-26T20:36:16.721Z,101580.93
2018-04-26T20:38:44.288Z,101583.54
2018-04-26T20:41:11.851Z,101574.41
2018-04-26T20:43:39.472Z,101574.39
2018-04-26T20:46:07.877Z,101571.80
2018-04-26T20:48:40.906Z,101561.78
2018-04-26T20:51:08.429Z,101561.34
2018-04-26T20:53:35.975Z,101558.75
2018-04-26T20:56:03.516Z,101552.23
2018-04-26T20:58:31.145Z,101544.02
2018-04-26T21:00:59.513Z,101549.25
2018-04-26T21:03:27.136Z,101549.69
2018-04-26T21:05:54.837Z,101540.56
2018-04-26T21:08:22.401Z,101536.14
2018-04-26T21:10:49.930Z,101525.28
2018-04-26T21:13:17.483Z,101527.46
2018-04-26T21:15:45.348Z,101520.11
2018-04-26T21:18:12.922Z,101519.28
2018-04-26T21:20:40.532Z,101518.93
2018-04-26T21:23:08.239Z,101513.73
2018-04-26T21:25:35.771Z,101508.97
2018-04-26T21:28:03.302Z,101499.41
2018-04-26T21:30:30.864Z,101498.17
2018-04-26T21:32:59.324Z,101501.25
2018-04-26T21:35:27.045Z,101502.19
2018-04-26T21:37:55.268Z,101497.87
2018-04-26T21:40:22.908Z,101509.20
2018-04-26T21:42:50.419Z,101494.50
2018-04-26T21:45:17.930Z,101492.79
2018-04-26T21:47:45.481Z,101492.87
2018-04-26T21:50:18.490Z,101487.30
2018-04-26T21:52:51.811Z,101481.67
2018-04-26T21:55:26.079Z,101486.91
2018-04-26T21:57:59.421Z,101485.27
2018-04-26T22:00:32.536Z,101479.30
2018-04-26T22:02:59.494Z,101472.86
2018-04-26T22:05:27.962Z,101473.33
2018-04-26T22:07:55.622Z,101468.16
2018-04-26T22:10:24.285Z,101467.76
2018-04-26T22:12:51.921Z,101470.39
2018-04-26T22:15:19.545Z,101465.20
2018-04-26T22:17:47.079Z,101462.66
2018-04-26T22:20:14.962Z,101456.59
2018-04-26T22:22:42.563Z,101454.43
2018-04-26T22:25:10.255Z,101449.27
2018-04-26T22:27:38.047Z,101445.30
2018-04-26T22:30:05.801Z,101450.92
2018-04-26T22:32:33.494Z,101440.92
2018-04-26T22:35:01.038Z,101437.41
2018-04-26T22:37:28.554Z,101439.55
2018-04-26T22:39:56.083Z,101433.87
2018-04-26T22:42:23.782Z,101428.66
2018-04-26T22:44:51.461Z,101426.50
2018-04-26T22:47:19.262Z,101426.05
2018-04-26T22:49:46.880Z,101426.48
2018-04-26T22:52:14.415Z,101426.46
2018-04-26T22:54:41.951Z,101423.07
2018-04-26T22:57:09.495Z,101419.20
2018-04-26T22:59:37.887Z,101414.06
2018-04-26T23:02:06.263Z,101416.67
2018-04-26T23:04:33.987Z,101421.91
2018-04-26T23:07:01.921Z,101416.29
2018-04-26T23:09:29.458Z,101421.50
2018-04-26T23:11:57.008Z,101416.77
2018-04-26T23:14:24.629Z,101405.06
2018-04-26T23:16:52.258Z,101408.14
2018-04-26T23:19:19.931Z,101406.46
2018-04-26T23:21:47.479Z,101400.41
2018-04-26T23:24:17.523Z,101403.12
2018-04-26T23:26:45.052Z,101402.71
2018-04-26T23:29:12.609Z,101397.59
2018-04-26T23:31:40.216Z,101402.05
2018-04-26T23:42:54.907Z,101393.03
2018-04-26T23:45:22.485Z,101381.44
2018-04-26T23:47:50.064Z,101389.47
2018-04-26T23:59:26.876Z,101385.17
